Terminal Aerodrome Forecast
Issued by NWS Northern Indiana

Home | Current Version | Previous Version | Graphics & Text | Print | Product List | Glossary On
Versions: 1 2 3 4 5 6 7 8 9 10 11 12 13
000
FTUS43 KIWX 011120
TAFFWA
TAF
KFWA 011120Z 0112/0212 22003KT 6SM BR FEW040
      TEMPO 0112/0113 4SM BR
     FM011400 23008KT P6SM SCT040
     FM020100 22004KT P6SM FEW060 SCT120=

USA.gov is the U.S. government's official web portal to all federal, state and local government web resources and services.